sensor_id;sensor_type;location;lat;lon;timestamp;P1;durP1;ratioP1;P2;durP2;ratioP2
35245;SDS011;21379;50.962;6.960;2023-04-06T00:00:35;12.00;;;6.05;;
35245;SDS011;21379;50.962;6.960;2023-04-06T00:03:02;13.43;;;5.32;;
35245;SDS011;21379;50.962;6.960;2023-04-06T00:05:29;13.68;;;6.15;;
35245;SDS011;21379;50.962;6.960;2023-04-06T00:07:58;16.15;;;6.13;;
35245;SDS011;21379;50.962;6.960;2023-04-06T00:10:25;11.93;;;5.20;;
35245;SDS011;21379;50.962;6.960;2023-04-06T00:12:52;14.35;;;6.43;;
35245;SDS011;21379;50.962;6.960;2023-04-06T00:15:19;13.93;;;5.70;;
35245;SDS011;21379;50.962;6.960;2023-04-06T00:17:46;14.68;;;6.65;;
35245;SDS011;21379;50.962;6.960;2023-04-06T00:20:13;16.35;;;5.75;;
35245;SDS011;21379;50.962;6.960;2023-04-06T00:22:41;12.25;;;5.35;;
35245;SDS011;21379;50.962;6.960;2023-04-06T00:25:09;15.45;;;5.55;;
35245;SDS011;21379;50.962;6.960;2023-04-06T00:27:37;8.95;;;4.53;;
35245;SDS011;21379;50.962;6.960;2023-04-06T00:30:04;10.90;;;5.88;;
35245;SDS011;21379;50.962;6.960;2023-04-06T00:32:32;13.52;;;5.47;;
35245;SDS011;21379;50.962;6.960;2023-04-06T00:35:02;16.27;;;5.90;;
35245;SDS011;21379;50.962;6.960;2023-04-06T00:37:30;10.55;;;5.38;;
35245;SDS011;21379;50.962;6.960;2023-04-06T00:39:57;10.55;;;5.57;;
35245;SDS011;21379;50.962;6.960;2023-04-06T00:42:26;13.98;;;5.45;;
35245;SDS011;21379;50.962;6.960;2023-04-06T00:44:54;19.27;;;5.20;;
35245;SDS011;21379;50.962;6.960;2023-04-06T00:47:22;14.95;;;5.35;;
35245;SDS011;21379;50.962;6.960;2023-04-06T00:49:50;11.15;;;4.40;;
35245;SDS011;21379;50.962;6.960;2023-04-06T00:52:17;16.90;;;5.15;;
35245;SDS011;21379;50.962;6.960;2023-04-06T00:54:47;10.05;;;4.30;;
35245;SDS011;21379;50.962;6.960;2023-04-06T00:57:15;10.07;;;4.85;;
35245;SDS011;21379;50.962;6.960;2023-04-06T00:59:45;10.02;;;4.60;;
35245;SDS011;21379;50.962;6.960;2023-04-06T01:02:12;8.00;;;4.32;;
35245;SDS011;21379;50.962;6.960;2023-04-06T01:04:45;10.35;;;4.65;;
35245;SDS011;21379;50.962;6.960;2023-04-06T01:07:21;10.77;;;4.55;;
35245;SDS011;21379;50.962;6.960;2023-04-06T01:10:02;10.80;;;4.78;;
35245;SDS011;21379;50.962;6.960;2023-04-06T01:12:31;12.52;;;5.13;;
35245;SDS011;21379;50.962;6.960;2023-04-06T01:15:03;9.05;;;4.57;;
35245;SDS011;21379;50.962;6.960;2023-04-06T01:17:33;8.65;;;4.68;;
35245;SDS011;21379;50.962;6.960;2023-04-06T01:20:07;7.65;;;4.35;;
35245;SDS011;21379;50.962;6.960;2023-04-06T01:22:37;11.57;;;5.22;;
35245;SDS011;21379;50.962;6.960;2023-04-06T01:25:04;9.55;;;5.18;;
35245;SDS011;21379;50.962;6.960;2023-04-06T01:27:39;12.52;;;4.95;;
35245;SDS011;21379;50.962;6.960;2023-04-06T01:30:10;10.05;;;5.07;;
35245;SDS011;21379;50.962;6.960;2023-04-06T01:32:43;11.07;;;4.85;;
35245;SDS011;21379;50.962;6.960;2023-04-06T01:35:12;12.00;;;4.75;;
35245;SDS011;21379;50.962;6.960;2023-04-06T01:37:50;10.27;;;4.82;;
35245;SDS011;21379;50.962;6.960;2023-04-06T01:40:24;12.57;;;4.65;;
35245;SDS011;21379;50.962;6.960;2023-04-06T01:42:51;10.32;;;4.07;;
35245;SDS011;21379;50.962;6.960;2023-04-06T01:45:27;13.88;;;5.20;;
35245;SDS011;21379;50.962;6.960;2023-04-06T01:48:00;8.00;;;4.70;;
35245;SDS011;21379;50.962;6.960;2023-04-06T01:50:28;10.82;;;5.25;;
35245;SDS011;21379;50.962;6.960;2023-04-06T01:52:57;11.23;;;4.88;;
35245;SDS011;21379;50.962;6.960;2023-04-06T01:55:25;11.73;;;4.90;;
35245;SDS011;21379;50.962;6.960;2023-04-06T01:58:13;9.30;;;4.45;;
35245;SDS011;21379;50.962;6.960;2023-04-06T02:00:40;9.48;;;4.97;;
35245;SDS011;21379;50.962;6.960;2023-04-06T02:03:08;9.50;;;3.95;;
35245;SDS011;21379;50.962;6.960;2023-04-06T02:05:35;9.32;;;4.05;;
35245;SDS011;21379;50.962;6.960;2023-04-06T02:08:06;7.93;;;3.78;;
35245;SDS011;21379;50.962;6.960;2023-04-06T02:10:36;8.32;;;4.63;;
35245;SDS011;21379;50.962;6.960;2023-04-06T02:13:12;8.68;;;5.03;;
35245;SDS011;21379;50.962;6.960;2023-04-06T02:15:44;9.13;;;5.00;;
35245;SDS011;21379;50.962;6.960;2023-04-06T02:18:11;9.73;;;5.15;;
35245;SDS011;21379;50.962;6.960;2023-04-06T02:20:39;10.55;;;4.53;;
35245;SDS011;21379;50.962;6.960;2023-04-06T02:23:08;8.50;;;3.65;;
35245;SDS011;21379;50.962;6.960;2023-04-06T02:25:35;7.65;;;3.85;;
35245;SDS011;21379;50.962;6.960;2023-04-06T02:28:02;6.43;;;3.97;;
35245;SDS011;21379;50.962;6.960;2023-04-06T02:30:30;6.88;;;3.90;;
35245;SDS011;21379;50.962;6.960;2023-04-06T02:32:58;9.35;;;4.30;;
35245;SDS011;21379;50.962;6.960;2023-04-06T02:35:27;6.07;;;3.47;;
35245;SDS011;21379;50.962;6.960;2023-04-06T02:37:54;8.93;;;3.97;;
35245;SDS011;21379;50.962;6.960;2023-04-06T02:40:23;6.68;;;3.75;;
35245;SDS011;21379;50.962;6.960;2023-04-06T02:42:50;8.93;;;3.70;;
35245;SDS011;21379;50.962;6.960;2023-04-06T02:45:25;9.23;;;3.80;;
35245;SDS011;21379;50.962;6.960;2023-04-06T02:47:53;13.45;;;4.60;;
35245;SDS011;21379;50.962;6.960;2023-04-06T02:50:21;7.32;;;3.90;;
35245;SDS011;21379;50.962;6.960;2023-04-06T02:55:24;7.90;;;3.60;;
35245;SDS011;21379;50.962;6.960;2023-04-06T02:57:51;12.23;;;4.53;;
35245;SDS011;21379;50.962;6.960;2023-04-06T03:00:23;9.20;;;4.22;;
35245;SDS011;21379;50.962;6.960;2023-04-06T03:02:50;10.45;;;4.70;;
35245;SDS011;21379;50.962;6.960;2023-04-06T03:05:18;4.65;;;3.35;;
35245;SDS011;21379;50.962;6.960;2023-04-06T03:07:46;5.22;;;3.70;;
35245;SDS011;21379;50.962;6.960;2023-04-06T03:10:21;7.00;;;3.42;;
35245;SDS011;21379;50.962;6.960;2023-04-06T03:12:50;9.10;;;4.30;;
35245;SDS011;21379;50.962;6.960;2023-04-06T03:15:23;8.80;;;3.85;;
35245;SDS011;21379;50.962;6.960;2023-04-06T03:17:56;9.85;;;4.60;;
35245;SDS011;21379;50.962;6.960;2023-04-06T03:20:38;6.47;;;3.20;;
35245;SDS011;21379;50.962;6.960;2023-04-06T03:23:05;8.23;;;4.22;;
35245;SDS011;21379;50.962;6.960;2023-04-06T03:25:38;10.75;;;4.68;;
35245;SDS011;21379;50.962;6.960;2023-04-06T03:28:08;6.45;;;3.63;;
35245;SDS011;21379;50.962;6.960;2023-04-06T03:30:42;7.88;;;3.90;;
35245;SDS011;21379;50.962;6.960;2023-04-06T03:33:11;9.65;;;4.15;;
35245;SDS011;21379;50.962;6.960;2023-04-06T03:35:47;8.15;;;3.97;;
35245;SDS011;21379;50.962;6.960;2023-04-06T03:38:14;6.93;;;3.70;;
35245;SDS011;21379;50.962;6.960;2023-04-06T03:40:43;8.77;;;4.57;;
35245;SDS011;21379;50.962;6.960;2023-04-06T03:43:10;9.15;;;4.55;;
35245;SDS011;21379;50.962;6.960;2023-04-06T03:45:38;9.77;;;4.88;;
35245;SDS011;21379;50.962;6.960;2023-04-06T03:48:05;9.90;;;3.75;;
35245;SDS011;21379;50.962;6.960;2023-04-06T03:50:34;6.53;;;3.33;;
35245;SDS011;21379;50.962;6.960;2023-04-06T03:53:01;9.25;;;4.40;;
35245;SDS011;21379;50.962;6.960;2023-04-06T03:55:29;9.50;;;4.30;;
35245;SDS011;21379;50.962;6.960;2023-04-06T03:57:57;9.18;;;3.47;;
35245;SDS011;21379;50.962;6.960;2023-04-06T04:00:24;7.00;;;4.10;;
35245;SDS011;21379;50.962;6.960;2023-04-06T04:02:55;8.82;;;4.10;;
35245;SDS011;21379;50.962;6.960;2023-04-06T04:05:22;10.38;;;4.00;;
35245;SDS011;21379;50.962;6.960;2023-04-06T04:07:51;11.63;;;4.57;;
35245;SDS011;21379;50.962;6.960;2023-04-06T04:10:22;7.57;;;4.28;;
35245;SDS011;21379;50.962;6.960;2023-04-06T04:12:49;9.07;;;5.00;;
35245;SDS011;21379;50.962;6.960;2023-04-06T04:15:17;11.13;;;4.82;;
35245;SDS011;21379;50.962;6.960;2023-04-06T04:17:44;7.97;;;3.42;;
35245;SDS011;21379;50.962;6.960;2023-04-06T04:20:14;7.68;;;3.55;;
35245;SDS011;21379;50.962;6.960;2023-04-06T04:22:41;11.52;;;3.95;;
35245;SDS011;21379;50.962;6.960;2023-04-06T04:25:09;7.70;;;4.53;;
35245;SDS011;21379;50.962;6.960;2023-04-06T04:27:42;5.13;;;3.30;;
35245;SDS011;21379;50.962;6.960;2023-04-06T04:30:10;5.90;;;3.30;;
35245;SDS011;21379;50.962;6.960;2023-04-06T04:32:38;7.90;;;4.05;;
35245;SDS011;21379;50.962;6.960;2023-04-06T04:35:08;8.95;;;3.88;;
35245;SDS011;21379;50.962;6.960;2023-04-06T04:37:40;7.13;;;3.35;;
35245;SDS011;21379;50.962;6.960;2023-04-06T04:40:08;9.90;;;4.07;;
35245;SDS011;21379;50.962;6.960;2023-04-06T04:45:33;14.30;;;4.38;;
35245;SDS011;21379;50.962;6.960;2023-04-06T04:48:12;12.52;;;4.30;;
35245;SDS011;21379;50.962;6.960;2023-04-06T04:50:50;10.60;;;4.47;;
35245;SDS011;21379;50.962;6.960;2023-04-06T04:53:21;9.38;;;4.53;;
35245;SDS011;21379;50.962;6.960;2023-04-06T04:55:48;10.15;;;4.50;;
35245;SDS011;21379;50.962;6.960;2023-04-06T04:58:16;6.75;;;3.75;;
35245;SDS011;21379;50.962;6.960;2023-04-06T05:00:52;13.77;;;4.35;;
35245;SDS011;21379;50.962;6.960;2023-04-06T05:03:22;14.38;;;4.47;;
35245;SDS011;21379;50.962;6.960;2023-04-06T05:06:04;12.45;;;4.97;;
35245;SDS011;21379;50.962;6.960;2023-04-06T05:08:34;10.43;;;4.65;;
35245;SDS011;21379;50.962;6.960;2023-04-06T05:11:01;17.92;;;4.82;;
35245;SDS011;21379;50.962;6.960;2023-04-06T05:13:34;14.27;;;5.15;;
35245;SDS011;21379;50.962;6.960;2023-04-06T05:16:06;11.07;;;4.90;;
35245;SDS011;21379;50.962;6.960;2023-04-06T05:18:36;8.50;;;4.18;;
35245;SDS011;21379;50.962;6.960;2023-04-06T05:21:05;12.45;;;4.25;;
35245;SDS011;21379;50.962;6.960;2023-04-06T05:23:43;8.18;;;4.45;;
35245;SDS011;21379;50.962;6.960;2023-04-06T05:26:10;11.05;;;4.78;;
35245;SDS011;21379;50.962;6.960;2023-04-06T05:28:37;13.65;;;4.72;;
35245;SDS011;21379;50.962;6.960;2023-04-06T05:31:05;13.52;;;4.95;;
35245;SDS011;21379;50.962;6.960;2023-04-06T05:33:43;10.77;;;4.32;;
35245;SDS011;21379;50.962;6.960;2023-04-06T05:36:14;10.57;;;4.55;;
35245;SDS011;21379;50.962;6.960;2023-04-06T05:38:43;9.82;;;4.88;;
35245;SDS011;21379;50.962;6.960;2023-04-06T05:41:28;10.10;;;4.43;;
35245;SDS011;21379;50.962;6.960;2023-04-06T05:43:56;5.70;;;4.22;;
35245;SDS011;21379;50.962;6.960;2023-04-06T05:46:23;11.43;;;4.15;;
35245;SDS011;21379;50.962;6.960;2023-04-06T05:48:54;9.35;;;3.58;;
35245;SDS011;21379;50.962;6.960;2023-04-06T05:51:24;12.88;;;3.92;;
35245;SDS011;21379;50.962;6.960;2023-04-06T05:53:52;8.30;;;4.47;;
35245;SDS011;21379;50.962;6.960;2023-04-06T05:56:19;11.77;;;3.75;;
35245;SDS011;21379;50.962;6.960;2023-04-06T05:58:46;7.35;;;3.80;;
35245;SDS011;21379;50.962;6.960;2023-04-06T06:01:21;10.32;;;3.72;;
35245;SDS011;21379;50.962;6.960;2023-04-06T06:03:48;19.73;;;4.43;;
35245;SDS011;21379;50.962;6.960;2023-04-06T06:06:16;9.93;;;3.95;;
35245;SDS011;21379;50.962;6.960;2023-04-06T06:09:06;10.68;;;4.35;;
35245;SDS011;21379;50.962;6.960;2023-04-06T06:11:39;9.55;;;3.80;;
35245;SDS011;21379;50.962;6.960;2023-04-06T06:14:07;13.75;;;5.22;;
35245;SDS011;21379;50.962;6.960;2023-04-06T06:16:37;8.40;;;4.45;;
35245;SDS011;21379;50.962;6.960;2023-04-06T06:19:06;10.77;;;4.10;;
35245;SDS011;21379;50.962;6.960;2023-04-06T06:21:35;13.23;;;4.47;;
35245;SDS011;21379;50.962;6.960;2023-04-06T06:24:04;4.97;;;3.10;;
35245;SDS011;21379;50.962;6.960;2023-04-06T06:26:32;9.77;;;4.32;;
35245;SDS011;21379;50.962;6.960;2023-04-06T06:29:01;6.60;;;3.90;;
35245;SDS011;21379;50.962;6.960;2023-04-06T06:31:28;11.48;;;4.20;;
35245;SDS011;21379;50.962;6.960;2023-04-06T06:33:55;12.57;;;3.85;;
35245;SDS011;21379;50.962;6.960;2023-04-06T06:36:24;9.23;;;3.95;;
35245;SDS011;21379;50.962;6.960;2023-04-06T06:38:53;8.15;;;3.38;;
35245;SDS011;21379;50.962;6.960;2023-04-06T06:41:20;7.72;;;3.88;;
35245;SDS011;21379;50.962;6.960;2023-04-06T06:43:47;7.63;;;3.70;;
35245;SDS011;21379;50.962;6.960;2023-04-06T06:46:16;11.48;;;4.72;;
35245;SDS011;21379;50.962;6.960;2023-04-06T06:48:43;7.90;;;4.07;;
35245;SDS011;21379;50.962;6.960;2023-04-06T06:51:10;7.18;;;4.47;;
35245;SDS011;21379;50.962;6.960;2023-04-06T06:53:39;10.88;;;4.07;;
35245;SDS011;21379;50.962;6.960;2023-04-06T06:56:08;13.85;;;4.30;;
35245;SDS011;21379;50.962;6.960;2023-04-06T06:58:35;7.35;;;3.40;;
35245;SDS011;21379;50.962;6.960;2023-04-06T07:01:02;13.15;;;3.95;;
35245;SDS011;21379;50.962;6.960;2023-04-06T07:03:30;9.23;;;3.40;;
35245;SDS011;21379;50.962;6.960;2023-04-06T07:05:58;10.95;;;4.05;;
35245;SDS011;21379;50.962;6.960;2023-04-06T07:08:25;6.70;;;3.63;;
35245;SDS011;21379;50.962;6.960;2023-04-06T07:10:53;12.52;;;3.95;;
35245;SDS011;21379;50.962;6.960;2023-04-06T07:13:22;6.28;;;3.88;;
35245;SDS011;21379;50.962;6.960;2023-04-06T07:15:54;23.23;;;5.18;;
35245;SDS011;21379;50.962;6.960;2023-04-06T07:18:21;19.58;;;4.25;;
35245;SDS011;21379;50.962;6.960;2023-04-06T07:20:49;8.05;;;3.60;;
35245;SDS011;21379;50.962;6.960;2023-04-06T07:23:17;10.13;;;4.50;;
35245;SDS011;21379;50.962;6.960;2023-04-06T07:25:44;8.82;;;4.03;;
35245;SDS011;21379;50.962;6.960;2023-04-06T07:28:11;13.07;;;3.95;;
35245;SDS011;21379;50.962;6.960;2023-04-06T07:30:40;10.02;;;4.47;;
35245;SDS011;21379;50.962;6.960;2023-04-06T07:33:09;9.52;;;4.35;;
35245;SDS011;21379;50.962;6.960;2023-04-06T07:35:36;10.07;;;4.10;;
35245;SDS011;21379;50.962;6.960;2023-04-06T07:38:05;10.50;;;3.67;;
35245;SDS011;21379;50.962;6.960;2023-04-06T07:40:33;6.03;;;3.25;;
35245;SDS011;21379;50.962;6.960;2023-04-06T07:43:00;6.68;;;4.28;;
35245;SDS011;21379;50.962;6.960;2023-04-06T07:45:28;8.70;;;4.10;;
35245;SDS011;21379;50.962;6.960;2023-04-06T07:47:57;12.52;;;4.93;;
35245;SDS011;21379;50.962;6.960;2023-04-06T07:50:25;8.82;;;4.60;;
35245;SDS011;21379;50.962;6.960;2023-04-06T07:52:53;11.07;;;4.55;;
35245;SDS011;21379;50.962;6.960;2023-04-06T07:55:21;9.55;;;3.63;;
35245;SDS011;21379;50.962;6.960;2023-04-06T07:57:48;10.43;;;5.07;;
35245;SDS011;21379;50.962;6.960;2023-04-06T08:00:15;8.60;;;4.40;;
35245;SDS011;21379;50.962;6.960;2023-04-06T08:02:43;10.75;;;3.88;;
35245;SDS011;21379;50.962;6.960;2023-04-06T08:05:11;8.52;;;4.50;;
35245;SDS011;21379;50.962;6.960;2023-04-06T08:07:38;7.15;;;3.95;;
35245;SDS011;21379;50.962;6.960;2023-04-06T08:10:07;8.40;;;3.83;;
35245;SDS011;21379;50.962;6.960;2023-04-06T08:12:34;11.43;;;5.22;;
35245;SDS011;21379;50.962;6.960;2023-04-06T08:15:01;10.82;;;5.20;;
35245;SDS011;21379;50.962;6.960;2023-04-06T08:17:29;8.05;;;4.28;;
35245;SDS011;21379;50.962;6.960;2023-04-06T08:19:59;8.77;;;4.50;;
35245;SDS011;21379;50.962;6.960;2023-04-06T08:22:27;11.50;;;5.00;;
35245;SDS011;21379;50.962;6.960;2023-04-06T08:24:54;9.57;;;4.40;;
35245;SDS011;21379;50.962;6.960;2023-04-06T08:27:21;10.32;;;5.35;;
35245;SDS011;21379;50.962;6.960;2023-04-06T08:29:49;11.50;;;6.13;;
35245;SDS011;21379;50.962;6.960;2023-04-06T08:32:16;12.68;;;5.05;;
35245;SDS011;21379;50.962;6.960;2023-04-06T08:34:43;10.63;;;5.60;;
35245;SDS011;21379;50.962;6.960;2023-04-06T08:37:10;11.10;;;4.75;;
35245;SDS011;21379;50.962;6.960;2023-04-06T08:39:38;15.30;;;5.20;;
35245;SDS011;21379;50.962;6.960;2023-04-06T08:42:10;14.65;;;5.32;;
35245;SDS011;21379;50.962;6.960;2023-04-06T08:44:41;9.60;;;4.53;;
35245;SDS011;21379;50.962;6.960;2023-04-06T08:47:09;7.10;;;4.18;;
35245;SDS011;21379;50.962;6.960;2023-04-06T08:49:37;13.52;;;5.00;;
35245;SDS011;21379;50.962;6.960;2023-04-06T08:52:05;13.32;;;5.78;;
35245;SDS011;21379;50.962;6.960;2023-04-06T08:54:33;9.57;;;4.35;;
35245;SDS011;21379;50.962;6.960;2023-04-06T08:57:01;9.48;;;4.90;;
35245;SDS011;21379;50.962;6.960;2023-04-06T08:59:29;9.10;;;4.75;;
35245;SDS011;21379;50.962;6.960;2023-04-06T09:01:57;9.43;;;5.32;;
35245;SDS011;21379;50.962;6.960;2023-04-06T09:04:26;15.95;;;4.90;;
35245;SDS011;21379;50.962;6.960;2023-04-06T09:06:53;14.35;;;5.32;;
35245;SDS011;21379;50.962;6.960;2023-04-06T09:09:20;11.57;;;5.90;;
35245;SDS011;21379;50.962;6.960;2023-04-06T09:11:50;15.00;;;5.60;;
35245;SDS011;21379;50.962;6.960;2023-04-06T09:17:02;11.95;;;5.30;;
35245;SDS011;21379;50.962;6.960;2023-04-06T09:19:30;11.18;;;5.63;;
35245;SDS011;21379;50.962;6.960;2023-04-06T09:22:01;9.85;;;4.22;;
35245;SDS011;21379;50.962;6.960;2023-04-06T09:24:38;11.32;;;5.53;;
35245;SDS011;21379;50.962;6.960;2023-04-06T09:27:06;10.40;;;5.32;;
35245;SDS011;21379;50.962;6.960;2023-04-06T09:29:33;11.20;;;5.13;;
35245;SDS011;21379;50.962;6.960;2023-04-06T09:32:03;14.18;;;5.25;;
35245;SDS011;21379;50.962;6.960;2023-04-06T09:34:30;14.93;;;5.90;;
35245;SDS011;21379;50.962;6.960;2023-04-06T09:36:58;12.93;;;5.70;;
35245;SDS011;21379;50.962;6.960;2023-04-06T09:39:25;11.23;;;4.93;;
35245;SDS011;21379;50.962;6.960;2023-04-06T09:41:53;11.30;;;4.90;;
35245;SDS011;21379;50.962;6.960;2023-04-06T09:44:20;14.32;;;5.63;;
35245;SDS011;21379;50.962;6.960;2023-04-06T09:46:50;8.93;;;5.13;;
35245;SDS011;21379;50.962;6.960;2023-04-06T09:49:19;15.40;;;6.13;;
35245;SDS011;21379;50.962;6.960;2023-04-06T09:51:47;10.23;;;5.40;;
35245;SDS011;21379;50.962;6.960;2023-04-06T09:54:20;12.60;;;5.57;;
35245;SDS011;21379;50.962;6.960;2023-04-06T09:56:50;14.90;;;6.57;;
35245;SDS011;21379;50.962;6.960;2023-04-06T09:59:24;13.95;;;5.97;;
35245;SDS011;21379;50.962;6.960;2023-04-06T10:02:01;11.07;;;5.20;;
35245;SDS011;21379;50.962;6.960;2023-04-06T10:04:32;10.45;;;5.45;;
35245;SDS011;21379;50.962;6.960;2023-04-06T10:07:06;13.27;;;5.95;;
35245;SDS011;21379;50.962;6.960;2023-04-06T10:09:34;14.52;;;5.40;;
35245;SDS011;21379;50.962;6.960;2023-04-06T10:12:03;11.93;;;4.72;;
35245;SDS011;21379;50.962;6.960;2023-04-06T10:14:31;13.98;;;5.50;;
35245;SDS011;21379;50.962;6.960;2023-04-06T10:17:04;14.95;;;6.22;;
35245;SDS011;21379;50.962;6.960;2023-04-06T10:19:36;15.63;;;6.20;;
35245;SDS011;21379;50.962;6.960;2023-04-06T10:22:09;16.10;;;5.70;;
35245;SDS011;21379;50.962;6.960;2023-04-06T10:24:42;12.80;;;5.38;;
35245;SDS011;21379;50.962;6.960;2023-04-06T10:27:09;9.68;;;4.97;;
35245;SDS011;21379;50.962;6.960;2023-04-06T10:29:43;12.60;;;6.05;;
35245;SDS011;21379;50.962;6.960;2023-04-06T10:34:40;20.00;;;6.63;;
35245;SDS011;21379;50.962;6.960;2023-04-06T10:37:10;15.95;;;4.93;;
35245;SDS011;21379;50.962;6.960;2023-04-06T10:39:51;17.23;;;6.15;;
35245;SDS011;21379;50.962;6.960;2023-04-06T10:42:23;11.63;;;5.20;;
35245;SDS011;21379;50.962;6.960;2023-04-06T10:44:50;15.65;;;6.10;;
35245;SDS011;21379;50.962;6.960;2023-04-06T10:47:19;18.60;;;6.95;;
35245;SDS011;21379;50.962;6.960;2023-04-06T10:49:46;15.50;;;6.28;;
35245;SDS011;21379;50.962;6.960;2023-04-06T10:52:13;12.63;;;5.93;;
35245;SDS011;21379;50.962;6.960;2023-04-06T10:54:41;13.90;;;5.82;;
35245;SDS011;21379;50.962;6.960;2023-04-06T10:57:09;15.95;;;6.13;;
35245;SDS011;21379;50.962;6.960;2023-04-06T10:59:36;13.25;;;6.82;;
35245;SDS011;21379;50.962;6.960;2023-04-06T11:02:08;13.90;;;6.25;;
35245;SDS011;21379;50.962;6.960;2023-04-06T11:04:36;17.08;;;6.68;;
35245;SDS011;21379;50.962;6.960;2023-04-06T11:07:03;17.92;;;6.35;;
35245;SDS011;21379;50.962;6.960;2023-04-06T11:09:30;13.18;;;6.10;;
35245;SDS011;21379;50.962;6.960;2023-04-06T11:11:57;14.65;;;5.38;;
35245;SDS011;21379;50.962;6.960;2023-04-06T11:14:25;18.15;;;7.15;;
35245;SDS011;21379;50.962;6.960;2023-04-06T11:16:53;18.35;;;6.97;;
35245;SDS011;21379;50.962;6.960;2023-04-06T11:19:20;13.40;;;5.75;;
35245;SDS011;21379;50.962;6.960;2023-04-06T11:21:48;13.43;;;6.18;;
35245;SDS011;21379;50.962;6.960;2023-04-06T11:24:16;12.00;;;6.03;;
35245;SDS011;21379;50.962;6.960;2023-04-06T11:26:45;11.30;;;5.53;;
35245;SDS011;21379;50.962;6.960;2023-04-06T11:29:15;11.85;;;5.65;;
35245;SDS011;21379;50.962;6.960;2023-04-06T11:31:44;13.55;;;6.63;;
35245;SDS011;21379;50.962;6.960;2023-04-06T11:34:13;13.93;;;5.93;;
35245;SDS011;21379;50.962;6.960;2023-04-06T11:36:43;16.10;;;6.47;;
35245;SDS011;21379;50.962;6.960;2023-04-06T11:39:13;20.38;;;7.25;;
35245;SDS011;21379;50.962;6.960;2023-04-06T11:41:47;18.60;;;6.40;;
35245;SDS011;21379;50.962;6.960;2023-04-06T11:44:14;13.65;;;6.82;;
35245;SDS011;21379;50.962;6.960;2023-04-06T11:46:41;15.65;;;5.82;;
35245;SDS011;21379;50.962;6.960;2023-04-06T11:49:18;18.92;;;7.13;;
35245;SDS011;21379;50.962;6.960;2023-04-06T11:51:45;16.45;;;6.70;;
35245;SDS011;21379;50.962;6.960;2023-04-06T11:54:14;13.07;;;6.07;;
35245;SDS011;21379;50.962;6.960;2023-04-06T11:56:42;12.82;;;5.05;;
35245;SDS011;21379;50.962;6.960;2023-04-06T11:59:12;13.65;;;5.93;;
35245;SDS011;21379;50.962;6.960;2023-04-06T12:01:44;11.80;;;5.60;;
35245;SDS011;21379;50.962;6.960;2023-04-06T12:04:11;13.30;;;5.07;;
35245;SDS011;21379;50.962;6.960;2023-04-06T12:06:38;12.20;;;5.65;;
35245;SDS011;21379;50.962;6.960;2023-04-06T12:09:05;14.48;;;5.30;;
35245;SDS011;21379;50.962;6.960;2023-04-06T12:11:34;17.48;;;5.65;;
35245;SDS011;21379;50.962;6.960;2023-04-06T12:14:01;12.85;;;5.68;;
35245;SDS011;21379;50.962;6.960;2023-04-06T12:16:29;14.60;;;5.30;;
35245;SDS011;21379;50.962;6.960;2023-04-06T12:18:57;16.10;;;6.10;;
35245;SDS011;21379;50.962;6.960;2023-04-06T12:21:24;16.20;;;7.07;;
35245;SDS011;21379;50.962;6.960;2023-04-06T12:23:51;11.48;;;5.35;;
35245;SDS011;21379;50.962;6.960;2023-04-06T12:26:18;15.80;;;5.20;;
35245;SDS011;21379;50.962;6.960;2023-04-06T12:28:46;10.13;;;5.05;;
35245;SDS011;21379;50.962;6.960;2023-04-06T12:31:14;13.30;;;5.53;;
35245;SDS011;21379;50.962;6.960;2023-04-06T12:33:41;13.63;;;5.32;;
35245;SDS011;21379;50.962;6.960;2023-04-06T12:36:11;13.40;;;6.07;;
35245;SDS011;21379;50.962;6.960;2023-04-06T12:38:38;10.77;;;5.03;;
35245;SDS011;21379;50.962;6.960;2023-04-06T12:41:06;13.55;;;5.88;;
35245;SDS011;21379;50.962;6.960;2023-04-06T12:43:33;13.00;;;5.60;;
35245;SDS011;21379;50.962;6.960;2023-04-06T12:46:02;14.82;;;5.25;;
35245;SDS011;21379;50.962;6.960;2023-04-06T12:48:29;12.27;;;5.07;;
35245;SDS011;21379;50.962;6.960;2023-04-06T12:50:57;12.13;;;5.13;;
35245;SDS011;21379;50.962;6.960;2023-04-06T12:53:24;16.55;;;5.80;;
35245;SDS011;21379;50.962;6.960;2023-04-06T12:55:52;12.73;;;5.50;;
35245;SDS011;21379;50.962;6.960;2023-04-06T12:58:20;14.90;;;6.28;;
35245;SDS011;21379;50.962;6.960;2023-04-06T13:00:48;13.52;;;4.65;;
35245;SDS011;21379;50.962;6.960;2023-04-06T13:03:17;10.85;;;4.78;;
35245;SDS011;21379;50.962;6.960;2023-04-06T13:05:45;10.52;;;5.20;;
35245;SDS011;21379;50.962;6.960;2023-04-06T13:08:12;10.60;;;4.82;;
35245;SDS011;21379;50.962;6.960;2023-04-06T13:10:42;11.48;;;4.90;;
35245;SDS011;21379;50.962;6.960;2023-04-06T13:13:10;8.93;;;4.15;;
35245;SDS011;21379;50.962;6.960;2023-04-06T13:15:36;9.38;;;3.90;;
35245;SDS011;21379;50.962;6.960;2023-04-06T13:18:04;10.95;;;4.30;;
35245;SDS011;21379;50.962;6.960;2023-04-06T13:20:33;9.85;;;4.47;;
35245;SDS011;21379;50.962;6.960;2023-04-06T13:23:00;7.22;;;3.97;;
35245;SDS011;21379;50.962;6.960;2023-04-06T13:25:27;8.38;;;3.83;;
35245;SDS011;21379;50.962;6.960;2023-04-06T13:27:54;10.65;;;4.25;;
35245;SDS011;21379;50.962;6.960;2023-04-06T13:30:21;8.15;;;4.00;;
35245;SDS011;21379;50.962;6.960;2023-04-06T13:32:48;7.05;;;3.60;;
35245;SDS011;21379;50.962;6.960;2023-04-06T13:35:15;10.82;;;4.80;;
35245;SDS011;21379;50.962;6.960;2023-04-06T13:37:44;7.32;;;3.80;;
35245;SDS011;21379;50.962;6.960;2023-04-06T13:40:11;7.25;;;3.42;;
35245;SDS011;21379;50.962;6.960;2023-04-06T13:42:38;10.48;;;3.83;;
35245;SDS011;21379;50.962;6.960;2023-04-06T13:45:09;6.65;;;3.58;;
35245;SDS011;21379;50.962;6.960;2023-04-06T13:47:36;8.75;;;4.68;;
35245;SDS011;21379;50.962;6.960;2023-04-06T13:50:04;9.40;;;4.32;;
35245;SDS011;21379;50.962;6.960;2023-04-06T13:52:32;10.52;;;3.95;;
35245;SDS011;21379;50.962;6.960;2023-04-06T13:55:01;11.90;;;4.10;;
35245;SDS011;21379;50.962;6.960;2023-04-06T13:57:28;7.00;;;3.10;;
35245;SDS011;21379;50.962;6.960;2023-04-06T13:59:55;7.85;;;3.47;;
35245;SDS011;21379;50.962;6.960;2023-04-06T14:02:22;9.55;;;3.03;;
35245;SDS011;21379;50.962;6.960;2023-04-06T14:04:52;8.73;;;3.70;;
35245;SDS011;21379;50.962;6.960;2023-04-06T14:07:20;7.43;;;3.45;;
35245;SDS011;21379;50.962;6.960;2023-04-06T14:09:47;11.00;;;3.78;;
35245;SDS011;21379;50.962;6.960;2023-04-06T14:12:16;9.57;;;4.05;;
35245;SDS011;21379;50.962;6.960;2023-04-06T14:14:42;8.75;;;4.05;;
35245;SDS011;21379;50.962;6.960;2023-04-06T14:17:09;7.45;;;2.92;;
35245;SDS011;21379;50.962;6.960;2023-04-06T14:19:36;8.05;;;3.55;;
35245;SDS011;21379;50.962;6.960;2023-04-06T14:22:03;7.93;;;4.13;;
35245;SDS011;21379;50.962;6.960;2023-04-06T14:24:30;15.93;;;4.38;;
35245;SDS011;21379;50.962;6.960;2023-04-06T14:26:57;10.02;;;4.32;;
35245;SDS011;21379;50.962;6.960;2023-04-06T14:29:27;9.95;;;3.78;;
35245;SDS011;21379;50.962;6.960;2023-04-06T14:31:54;6.35;;;3.05;;
35245;SDS011;21379;50.962;6.960;2023-04-06T14:34:24;7.68;;;3.47;;
35245;SDS011;21379;50.962;6.960;2023-04-06T14:36:51;6.00;;;3.13;;
35245;SDS011;21379;50.962;6.960;2023-04-06T14:39:18;8.05;;;3.58;;
35245;SDS011;21379;50.962;6.960;2023-04-06T14:41:45;6.60;;;2.72;;
35245;SDS011;21379;50.962;6.960;2023-04-06T14:44:13;7.40;;;3.15;;
35245;SDS011;21379;50.962;6.960;2023-04-06T14:46:41;4.85;;;2.30;;
35245;SDS011;21379;50.962;6.960;2023-04-06T14:49:08;8.80;;;3.30;;
35245;SDS011;21379;50.962;6.960;2023-04-06T14:51:35;6.00;;;2.95;;
35245;SDS011;21379;50.962;6.960;2023-04-06T14:54:02;5.60;;;2.95;;
35245;SDS011;21379;50.962;6.960;2023-04-06T14:56:29;8.68;;;3.28;;
35245;SDS011;21379;50.962;6.960;2023-04-06T14:58:57;5.72;;;2.58;;
35245;SDS011;21379;50.962;6.960;2023-04-06T15:01:26;5.15;;;2.72;;